Time;durP1;ratioP1;P1;durP2;ratioP2;P2;SDS_P1;SDS_P2;PMS_P1;PMS_P2;Temp;Humidity;BMP_temperature;BMP_pressure;BME280_temperature;BME280_humidity;BME280_pressure;Samples;Min_cycle;Max_cycle;Signal;HPM_P1;HPM_P2
2022/07/07 00:00:30;;;;;;;;;;;;;;;;;;5075264;28;19908;-42
2022/07/07 00:02:55;;;;;;;;;;;;;;;;;;5075153;28;20355;-43
2022/07/07 00:05:20;;;;;;;;;;;;;;;;;;5075036;28;19918;-42
2022/07/07 00:07:46;;;;;;;;;;;;;;;;;;5075432;28;19932;-42
2022/07/07 00:10:11;;;;;;;;;;;;;;;;;;5074949;28;19915;-41
2022/07/07 00:12:36;;;;;;;;;;;;;;;;;;5075637;28;20065;-42
2022/07/07 00:15:01;;;;;;;;;;;;;;;;;;5075065;28;19986;-43
2022/07/07 00:17:26;;;;;;;;;;;;;;;;;;5075001;28;19913;-42
2022/07/07 00:19:51;;;;;;;;;;;;;;;;;;5074816;28;20389;-44
2022/07/07 00:22:16;;;;;;;;;;;;;;;;;;5075001;28;19916;-42
2022/07/07 00:24:42;;;;;;;;;;;;;;;;;;5074902;28;19919;-42
2022/07/07 00:27:07;;;;;;;;;;;;;;;;;;5075167;28;19909;-42
2022/07/07 00:29:32;;;;;;;;;;;;;;;;;;5074787;28;19908;-42
2022/07/07 00:31:57;;;;;;;;;;;;;;;;;;5074894;28;20291;-42
2022/07/07 00:34:22;;;;;;;;;;;;;;;;;;5074911;28;19905;-42
2022/07/07 00:36:47;;;;;;;;;;;;;;;;;;5074689;28;19908;-42
2022/07/07 00:39:13;;;;;;;;;;;;;;;;;;5074855;28;19912;-41
2022/07/07 00:41:38;;;;;;;;;;;;;;;;;;5075034;28;19915;-43
2022/07/07 00:44:03;;;;;;;;;;;;;;;;;;5074753;28;19916;-42
2022/07/07 00:46:28;;;;;;;;;;;;;;;;;;5074575;28;19916;-42
2022/07/07 00:48:53;;;;;;;;;;;;;;;;;;5074986;28;19908;-43
2022/07/07 00:51:18;;;;;;;;;;;;;;;;;;5074861;28;19908;-42
2022/07/07 00:53:44;;;;;;;;;;;;;;;;;;5074808;28;20282;-42
2022/07/07 00:56:09;;;;;;;;;;;;;;;;;;5074832;28;19994;-42
2022/07/07 00:58:34;;;;;;;;;;;;;;;;;;5074721;28;19916;-42
2022/07/07 01:00:59;;;;;;;;;;;;;;;;;;5074874;28;20374;-42
2022/07/07 01:03:24;;;;;;;;;;;;;;;;;;5074631;28;20347;-42
2022/07/07 01:05:49;;;;;;;;;;;;;;;;;;5074470;28;20011;-42
2022/07/07 01:08:17;;;;;;;;;;;;;;;;;;5074798;28;19912;-42
2022/07/07 01:10:42;;;;;;;;;;;;;;;;;;5074462;28;19966;-42
2022/07/07 01:13:07;;;;;;;;;;;;;;;;;;5074703;28;20328;-42
2022/07/07 01:15:32;;;;;;;;;;;;;;;;;;5074363;28;19999;-43
2022/07/07 01:17:57;;;;;;;;;;;;;;;;;;5074588;28;20000;-42
2022/07/07 01:20:23;;;;;;;;;;;;;;;;;;5074315;28;20027;-42
2022/07/07 01:22:48;;;;;;;;;;;;;;;;;;5074371;28;19971;-43
2022/07/07 01:25:13;;;;;;;;;;;;;;;;;;5074081;28;19912;-43
2022/07/07 01:27:38;;;;;;;;;;;;;;;;;;5072823;28;20406;-43
2022/07/07 01:30:03;;;;;;;;;;;;;;;;;;5074051;28;20369;-42
2022/07/07 01:32:28;;;;;;;;;;;;;;;;;;5074771;28;19908;-42
2022/07/07 01:34:53;;;;;;;;;;;;;;;;;;5077778;28;20271;-42
2022/07/07 01:37:20;;;;;;;;;;;;;;;;;;5077629;28;20429;-42
2022/07/07 01:39:45;;;;;;;;;;;;;;;;;;5059716;28;19915;-42
2022/07/07 01:42:10;;;;;;;;;;;;;;;;;;5077556;28;20355;-42
2022/07/07 01:44:36;;;;;;;;;;;;;;;;;;5077628;28;19912;-43
2022/07/07 01:47:01;;;;;;;;;;;;;;;;;;5077583;28;19915;-42
2022/07/07 01:49:26;;;;;;;;;;;;;;;;;;5077584;28;19908;-42
2022/07/07 01:51:51;;;;;;;;;;;;;;;;;;5077779;28;19909;-42
2022/07/07 01:54:16;;;;;;;;;;;;;;;;;;5077800;28;20359;-43
2022/07/07 01:56:41;;;;;;;;;;;;;;;;;;5077434;28;19931;-42
2022/07/07 01:59:06;;;;;;;;;;;;;;;;;;5077380;28;20375;-42
2022/07/07 02:01:31;;;;;;;;;;;;;;;;;;5077472;28;19962;-42
2022/07/07 02:03:57;;;;;;;;;;;;;;;;;;5077304;28;19916;-42
2022/07/07 02:06:22;;;;;;;;;;;;;;;;;;5077197;28;20016;-43
2022/07/07 02:08:47;;;;;;;;;;;;;;;;;;5077301;28;19919;-42
2022/07/07 02:11:12;;;;;;;;;;;;;;;;;;5077033;28;19927;-42
2022/07/07 02:13:37;;;;;;;;;;;;;;;;;;5076989;28;19912;-43
2022/07/07 02:16:02;;;;;;;;;;;;;;;;;;5077264;28;19909;-41
2022/07/07 02:18:28;;;;;;;;;;;;;;;;;;5076860;28;20305;-42
2022/07/07 02:20:53;;;;;;;;;;;;;;;;;;5076911;28;20266;-42
2022/07/07 02:23:18;;;;;;;;;;;;;;;;;;5076954;28;19935;-42
2022/07/07 02:25:43;;;;;;;;;;;;;;;;;;5076932;28;19930;-42
2022/07/07 02:28:08;;;;;;;;;;;;;;;;;;5077057;28;19915;-42
2022/07/07 02:30:34;;;;;;;;;;;;;;;;;;5076832;28;19909;-42
2022/07/07 02:32:59;;;;;;;;;;;;;;;;;;5076812;28;19975;-42
2022/07/07 02:35:24;;;;;;;;;;;;;;;;;;5076627;28;19908;-43
2022/07/07 02:37:49;;;;;;;;;;;;;;;;;;5076618;28;19912;-42
2022/07/07 02:40:15;;;;;;;;;;;;;;;;;;5076532;28;20267;-42
2022/07/07 02:42:40;;;;;;;;;;;;;;;;;;5076649;28;19916;-43
2022/07/07 02:45:05;;;;;;;;;;;;;;;;;;5075606;28;19920;-43
2022/07/07 02:47:30;;;;;;;;;;;;;;;;;;5076612;28;20377;-43
2022/07/07 02:49:55;;;;;;;;;;;;;;;;;;5076491;28;19912;-42
2022/07/07 02:52:20;;;;;;;;;;;;;;;;;;5076442;28;19908;-42
2022/07/07 02:54:45;;;;;;;;;;;;;;;;;;5076319;28;19914;-42
2022/07/07 02:57:10;;;;;;;;;;;;;;;;;;5076075;28;19909;-42
2022/07/07 02:59:36;;;;;;;;;;;;;;;;;;5076347;28;20369;-42
2022/07/07 03:02:01;;;;;;;;;;;;;;;;;;5076345;28;19908;-43
2022/07/07 03:04:26;;;;;;;;;;;;;;;;;;5076119;28;19912;-41
2022/07/07 03:06:51;;;;;;;;;;;;;;;;;;5076335;28;19909;-42
2022/07/07 03:09:16;;;;;;;;;;;;;;;;;;5075932;28;20351;-43
2022/07/07 03:11:42;;;;;;;;;;;;;;;;;;5075684;28;20264;-42
2022/07/07 03:14:07;;;;;;;;;;;;;;;;;;5075915;28;19908;-43
2022/07/07 03:16:32;;;;;;;;;;;;;;;;;;5075868;28;19908;-43
2022/07/07 03:18:59;;;;;;;;;;;;;;;;;;5075752;28;19938;-42
2022/07/07 03:21:24;;;;;;;;;;;;;;;;;;5075932;28;20015;-43
2022/07/07 03:23:49;;;;;;;;;;;;;;;;;;5075642;28;20354;-43
2022/07/07 03:26:14;;;;;;;;;;;;;;;;;;5075809;28;19999;-43
2022/07/07 03:28:39;;;;;;;;;;;;;;;;;;5075704;28;19951;-42
2022/07/07 03:31:04;;;;;;;;;;;;;;;;;;5075638;28;19924;-42
2022/07/07 03:33:29;;;;;;;;;;;;;;;;;;5075773;28;19915;-42
2022/07/07 03:35:54;;;;;;;;;;;;;;;;;;5075633;28;19916;-43
2022/07/07 03:38:20;;;;;;;;;;;;;;;;;;5075471;28;19920;-41
2022/07/07 03:40:45;;;;;;;;;;;;;;;;;;5075549;28;19908;-42
2022/07/07 03:43:10;;;;;;;;;;;;;;;;;;5075464;28;20343;-42
2022/07/07 03:45:35;;;;;;;;;;;;;;;;;;5075550;28;20305;-42
2022/07/07 03:48:01;;;;;;;;;;;;;;;;;;5075510;28;19909;-42
2022/07/07 03:50:26;;;;;;;;;;;;;;;;;;5075591;28;20325;-43
2022/07/07 03:52:51;;;;;;;;;;;;;;;;;;5075367;28;19915;-42
2022/07/07 03:55:16;;;;;;;;;;;;;;;;;;5057211;28;19991;-42
2022/07/07 03:57:41;;;;;;;;;;;;;;;;;;5075390;28;19908;-42
2022/07/07 04:00:06;;;;;;;;;;;;;;;;;;5075440;28;19987;-42
2022/07/07 04:02:31;;;;;;;;;;;;;;;;;;5075453;28;19912;-42
2022/07/07 04:04:56;;;;;;;;;;;;;;;;;;5057167;28;19916;-42
2022/07/07 04:07:21;;;;;;;;;;;;;;;;;;5075185;28;19912;-42
2022/07/07 04:09:46;;;;;;;;;;;;;;;;;;5075127;28;19909;-42
2022/07/07 04:12:12;;;;;;;;;;;;;;;;;;5075018;28;19971;-42
2022/07/07 04:14:37;;;;;;;;;;;;;;;;;;5075121;28;19958;-42
2022/07/07 04:17:02;;;;;;;;;;;;;;;;;;5074981;28;20278;-43
2022/07/07 04:19:27;;;;;;;;;;;;;;;;;;5075036;28;19916;-42
2022/07/07 04:21:52;;;;;;;;;;;;;;;;;;5075047;28;20005;-42
2022/07/07 04:24:17;;;;;;;;;;;;;;;;;;5075023;28;19912;-42
2022/07/07 04:26:43;;;;;;;;;;;;;;;;;;5075177;28;19909;-43
2022/07/07 04:29:08;;;;;;;;;;;;;;;;;;5075155;28;19913;-42
2022/07/07 04:31:33;;;;;;;;;;;;;;;;;;5074901;28;19904;-42
2022/07/07 04:33:58;;;;;;;;;;;;;;;;;;5075067;28;19958;-42
2022/07/07 04:36:23;;;;;;;;;;;;;;;;;;5074743;28;20374;-42
2022/07/07 04:38:48;;;;;;;;;;;;;;;;;;5074763;28;20275;-41
2022/07/07 04:41:13;;;;;;;;;;;;;;;;;;5074729;28;20318;-42
2022/07/07 04:43:38;;;;;;;;;;;;;;;;;;5074635;28;19908;-43
2022/07/07 04:46:03;;;;;;;;;;;;;;;;;;5074780;28;19954;-43
2022/07/07 04:48:29;;;;;;;;;;;;;;;;;;5074700;28;19912;-42
2022/07/07 04:50:54;;;;;;;;;;;;;;;;;;5074524;28;19912;-42
2022/07/07 04:53:19;;;;;;;;;;;;;;;;;;5074566;28;19931;-42
2022/07/07 04:55:44;;;;;;;;;;;;;;;;;;5074822;28;19912;-43
2022/07/07 04:58:09;;;;;;;;;;;;;;;;;;5074530;28;20355;-42
2022/07/07 05:00:34;;;;;;;;;;;;;;;;;;5074502;28;20279;-43
2022/07/07 05:03:00;;;;;;;;;;;;;;;;;;5074538;28;19919;-42
2022/07/07 05:05:25;;;;;;;;;;;;;;;;;;5074526;28;19913;-42
2022/07/07 05:07:50;;;;;;;;;;;;;;;;;;5075368;28;19967;-42
2022/07/07 05:10:15;;;;;;;;;;;;;;;;;;5078136;28;20007;-42
2022/07/07 05:12:40;;;;;;;;;;;;;;;;;;5078236;28;19934;-42
2022/07/07 05:15:06;;;;;;;;;;;;;;;;;;5078085;28;19999;-42
2022/07/07 05:17:31;;;;;;;;;;;;;;;;;;5078287;28;20326;-42
2022/07/07 05:19:56;;;;;;;;;;;;;;;;;;5077922;28;19912;-42
2022/07/07 05:22:21;;;;;;;;;;;;;;;;;;5077931;28;19908;-43
2022/07/07 05:24:46;;;;;;;;;;;;;;;;;;5077896;28;19912;-43
2022/07/07 05:27:11;;;;;;;;;;;;;;;;;;5078062;28;19908;-43
2022/07/07 05:29:36;;;;;;;;;;;;;;;;;;5077945;28;19908;-42
2022/07/07 05:32:01;;;;;;;;;;;;;;;;;;5074729;28;20359;-41
2022/07/07 05:34:26;;;;;;;;;;;;;;;;;;5076196;28;19935;-45
2022/07/07 05:36:51;;;;;;;;;;;;;;;;;;5077506;28;19920;-47
2022/07/07 05:39:17;;;;;;;;;;;;;;;;;;5076099;28;19913;-47
2022/07/07 05:41:42;;;;;;;;;;;;;;;;;;5064962;28;19916;-46
2022/07/07 05:44:07;;;;;;;;;;;;;;;;;;5070492;28;19978;-46
2022/07/07 05:46:32;;;;;;;;;;;;;;;;;;5068946;28;19916;-46
2022/07/07 05:48:57;;;;;;;;;;;;;;;;;;5065627;28;19919;-45
2022/07/07 05:51:22;;;;;;;;;;;;;;;;;;5069318;28;19933;-47
2022/07/07 05:53:48;;;;;;;;;;;;;;;;;;5069205;28;19923;-47
2022/07/07 05:56:13;;;;;;;;;;;;;;;;;;5051809;28;19924;-47
2022/07/07 05:58:38;;;;;;;;;;;;;;;;;;5052571;28;21233;-46
2022/07/07 06:01:03;;;;;;;;;;;;;;;;;;5020538;28;19925;-46
2022/07/07 06:03:28;;;;;;;;;;;;;;;;;;5033437;28;19920;-48
2022/07/07 06:05:53;;;;;;;;;;;;;;;;;;5033040;28;19944;-47
2022/07/07 06:08:19;;;;;;;;;;;;;;;;;;5011624;28;19927;-49
2022/07/07 06:10:45;;;;;;;;;;;;;;;;;;4970965;28;19929;-47
2022/07/07 06:13:10;;;;;;;;;;;;;;;;;;4925867;28;19925;-46
2022/07/07 06:15:35;;;;;;;;;;;;;;;;;;4863024;28;19957;-46
2022/07/07 06:18:00;;;;;;;;;;;;;;;;;;4751509;28;19978;-48
2022/07/07 06:20:25;;;;;;;;;;;;;;;;;;4735319;28;21681;-46
2022/07/07 06:22:50;;;;;;;;;;;;;;;;;;4592149;28;20436;-47
2022/07/07 06:25:15;;;;;;;;;;;;;;;;;;4593452;28;21578;-47
2022/07/07 06:27:41;;;;;;;;;;;;;;;;;;4672939;28;22154;-55
2022/07/07 06:30:06;;;;;;;;;;;;;;;;;;4774888;28;22152;-46
2022/07/07 06:32:31;;;;;;;;;;;;;;;;;;4877206;28;20025;-45
2022/07/07 06:34:56;;;;;;;;;;;;;;;;;;4901666;28;29010;-47
2022/07/07 06:37:21;;;;;;;;;;;;;;;;;;4885233;28;21350;-46
2022/07/07 06:39:46;;;;;;;;;;;;;;;;;;4906151;28;20212;-47
2022/07/07 06:42:13;;;;;;;;;;;;;;;;;;4897876;28;19969;-47
2022/07/07 06:44:38;;;;;;;;;;;;;;;;;;4916778;28;20718;-45
2022/07/07 06:47:03;;;;;;;;;;;;;;;;;;4884537;28;21578;-45
2022/07/07 06:49:28;;;;;;;;;;;;;;;;;;4913294;28;19950;-46
2022/07/07 06:51:53;;;;;;;;;;;;;;;;;;4869092;28;19968;-47
2022/07/07 06:54:18;;;;;;;;;;;;;;;;;;4864701;28;19927;-47
2022/07/07 06:56:44;;;;;;;;;;;;;;;;;;4884414;28;19920;-46
2022/07/07 06:59:09;;;;;;;;;;;;;;;;;;4893557;28;19920;-47
2022/07/07 07:01:34;;;;;;;;;;;;;;;;;;4881683;28;20037;-47
2022/07/07 07:03:59;;;;;;;;;;;;;;;;;;4872528;28;19924;-47
2022/07/07 07:06:25;;;;;;;;;;;;;;;;;;4891120;28;20004;-46
2022/07/07 07:08:50;;;;;;;;;;;;;;;;;;4906396;28;19924;-48
2022/07/07 07:11:15;;;;;;;;;;;;;;;;;;4904535;28;21090;-47
2022/07/07 07:13:40;;;;;;;;;;;;;;;;;;4915757;28;19920;-48
2022/07/07 07:16:06;;;;;;;;;;;;;;;;;;4909760;28;22013;-48
2022/07/07 07:18:31;;;;;;;;;;;;;;;;;;4924308;28;20039;-46
2022/07/07 07:20:56;;;;;;;;;;;;;;;;;;4894516;28;20769;-46
2022/07/07 07:23:21;;;;;;;;;;;;;;;;;;4611082;28;21845;-47
2022/07/07 07:25:46;;;;;;;;;;;;;;;;;;4596238;28;22959;-46
2022/07/07 07:28:11;;;;;;;;;;;;;;;;;;4676218;28;20929;-48
2022/07/07 07:30:37;;;;;;;;;;;;;;;;;;4772541;28;22827;-45
2022/07/07 07:33:02;;;;;;;;;;;;;;;;;;4797158;28;48837;-44
2022/07/07 07:35:27;;;;;;;;;;;;;;;;;;4826823;28;21545;-46
2022/07/07 07:37:52;;;;;;;;;;;;;;;;;;4786345;28;22603;-48
2022/07/07 07:40:17;;;;;;;;;;;;;;;;;;4803104;28;19983;-45
2022/07/07 07:42:42;;;;;;;;;;;;;;;;;;4724743;28;21868;-47
2022/07/07 07:45:11;;;;;;;;;;;;;;;;;;4721067;28;22186;-47
2022/07/07 07:47:36;;;;;;;;;;;;;;;;;;4788140;28;26047;-48
2022/07/07 07:50:01;;;;;;;;;;;;;;;;;;4880510;28;21606;-49
2022/07/07 07:52:26;;;;;;;;;;;;;;;;;;4909419;28;21193;-47
2022/07/07 07:54:52;;;;;;;;;;;;;;;;;;4923929;28;19920;-47
2022/07/07 07:57:18;;;;;;;;;;;;;;;;;;4909475;28;22014;-47
2022/07/07 07:59:43;;;;;;;;;;;;;;;;;;4930774;28;19920;-48
2022/07/07 08:02:08;;;;;;;;;;;;;;;;;;4888226;28;24730;-49
2022/07/07 08:04:33;;;;;;;;;;;;;;;;;;4910480;28;27762;-48
2022/07/07 08:06:58;;;;;;;;;;;;;;;;;;4902803;28;19920;-47
2022/07/07 08:09:24;;;;;;;;;;;;;;;;;;4890044;28;19920;-43
2022/07/07 08:11:49;;;;;;;;;;;;;;;;;;4863158;28;20054;-47
2022/07/07 08:14:14;;;;;;;;;;;;;;;;;;4847254;28;22879;-48
2022/07/07 08:16:39;;;;;;;;;;;;;;;;;;4827177;28;25182;-49
2022/07/07 08:19:04;;;;;;;;;;;;;;;;;;4852107;28;21422;-50
2022/07/07 08:21:29;;;;;;;;;;;;;;;;;;4857193;28;21360;-49
2022/07/07 08:23:54;;;;;;;;;;;;;;;;;;4870199;28;20674;-50
2022/07/07 08:26:20;;;;;;;;;;;;;;;;;;4864098;28;22318;-47
2022/07/07 08:28:46;;;;;;;;;;;;;;;;;;4837137;28;30240;-49
2022/07/07 08:31:11;;;;;;;;;;;;;;;;;;4828381;28;21970;-47
2022/07/07 08:33:37;;;;;;;;;;;;;;;;;;4855261;28;20035;-46
2022/07/07 08:36:02;;;;;;;;;;;;;;;;;;4860291;28;34549;-47
2022/07/07 08:38:27;;;;;;;;;;;;;;;;;;4862072;28;19920;-45
2022/07/07 08:40:52;;;;;;;;;;;;;;;;;;4830238;28;22781;-45
2022/07/07 08:43:18;;;;;;;;;;;;;;;;;;4769245;28;30500;-44
2022/07/07 08:45:44;;;;;;;;;;;;;;;;;;4769653;28;19924;-47
2022/07/07 08:48:09;;;;;;;;;;;;;;;;;;4765215;28;41334;-47
2022/07/07 08:50:34;;;;;;;;;;;;;;;;;;4813899;28;22900;-46
2022/07/07 08:52:59;;;;;;;;;;;;;;;;;;4843198;28;47417;-47
2022/07/07 08:55:24;;;;;;;;;;;;;;;;;;4909182;28;19996;-47
2022/07/07 08:57:49;;;;;;;;;;;;;;;;;;4926873;28;23721;-46
2022/07/07 09:00:14;;;;;;;;;;;;;;;;;;4925310;28;22138;-48
2022/07/07 09:02:40;;;;;;;;;;;;;;;;;;4937778;28;21696;-47
2022/07/07 09:05:05;;;;;;;;;;;;;;;;;;4942211;28;19931;-49
2022/07/07 09:07:30;;;;;;;;;;;;;;;;;;4913218;28;23871;-47
2022/07/07 09:09:55;;;;;;;;;;;;;;;;;;4951279;28;19921;-47
2022/07/07 09:12:20;;;;;;;;;;;;;;;;;;4961307;28;20071;-46
2022/07/07 09:14:45;;;;;;;;;;;;;;;;;;4974742;28;20116;-47
2022/07/07 09:17:14;;;;;;;;;;;;;;;;;;4980224;28;19962;-47
2022/07/07 09:19:40;;;;;;;;;;;;;;;;;;4963244;28;20378;-48
2022/07/07 09:22:05;;;;;;;;;;;;;;;;;;4969541;28;20042;-45
2022/07/07 09:24:30;;;;;;;;;;;;;;;;;;4963922;28;19924;-47
2022/07/07 09:26:55;;;;;;;;;;;;;;;;;;4963411;28;19920;-48
2022/07/07 09:29:23;;;;;;;;;;;;;;;;;;4970981;28;20807;-46
2022/07/07 09:31:48;;;;;;;;;;;;;;;;;;4960881;28;19921;-47
2022/07/07 09:34:13;;;;;;;;;;;;;;;;;;4958063;28;21618;-47
2022/07/07 09:39:36;;;;;;;;;;;;;;;;;;4891322;28;19978;-46
2022/07/07 09:42:01;;;;;;;;;;;;;;;;;;4839440;28;19929;-47
2022/07/07 09:44:26;;;;;;;;;;;;;;;;;;4821692;28;19926;-47
2022/07/07 09:46:51;;;;;;;;;;;;;;;;;;4795384;28;25173;-47
2022/07/07 09:49:16;;;;;;;;;;;;;;;;;;4831881;28;20750;-46
2022/07/07 09:51:41;;;;;;;;;;;;;;;;;;4861126;28;19949;-46
2022/07/07 09:54:07;;;;;;;;;;;;;;;;;;4853460;28;21065;-46
2022/07/07 09:56:32;;;;;;;;;;;;;;;;;;4852943;28;19968;-46
2022/07/07 09:58:57;;;;;;;;;;;;;;;;;;4821417;28;23178;-47
2022/07/07 10:01:24;;;;;;;;;;;;;;;;;;4826551;28;20334;-47
2022/07/07 10:03:49;;;;;;;;;;;;;;;;;;4829563;28;25598;-48
2022/07/07 10:06:14;;;;;;;;;;;;;;;;;;4823501;28;19933;-47
2022/07/07 10:08:40;;;;;;;;;;;;;;;;;;4802006;28;26067;-47
2022/07/07 10:11:05;;;;;;;;;;;;;;;;;;4866544;28;22798;-46
2022/07/07 10:13:30;;;;;;;;;;;;;;;;;;4880158;28;23827;-47
2022/07/07 10:15:55;;;;;;;;;;;;;;;;;;4956906;28;19927;-48
2022/07/07 10:18:21;;;;;;;;;;;;;;;;;;4982766;28;25714;-47
2022/07/07 10:20:46;;;;;;;;;;;;;;;;;;5000611;28;19960;-48
2022/07/07 10:23:11;;;;;;;;;;;;;;;;;;5009277;28;19920;-46
2022/07/07 10:25:36;;;;;;;;;;;;;;;;;;5019595;28;21659;-48
2022/07/07 10:28:01;;;;;;;;;;;;;;;;;;4987420;28;21957;-46
2022/07/07 10:30:27;;;;;;;;;;;;;;;;;;5020838;28;20023;-48
2022/07/07 10:32:52;;;;;;;;;;;;;;;;;;5009421;28;19921;-48
2022/07/07 10:35:25;;;;;;;;;;;;;;;;;;5029495;28;19920;-47
2022/07/07 10:37:50;;;;;;;;;;;;;;;;;;5016134;28;19920;-48
2022/07/07 10:40:15;;;;;;;;;;;;;;;;;;5003384;28;19920;-47
2022/07/07 10:42:43;;;;;;;;;;;;;;;;;;5018908;28;20346;-48
2022/07/07 10:45:10;;;;;;;;;;;;;;;;;;4994367;28;19928;-47
2022/07/07 10:47:35;;;;;;;;;;;;;;;;;;5011908;28;19927;-47
2022/07/07 10:50:01;;;;;;;;;;;;;;;;;;5016093;28;19917;-45
2022/07/07 10:52:26;;;;;;;;;;;;;;;;;;5013503;28;27847;-48
2022/07/07 10:54:51;;;;;;;;;;;;;;;;;;5018788;28;19919;-47
2022/07/07 10:57:16;;;;;;;;;;;;;;;;;;5012831;28;19917;-48
2022/07/07 10:59:41;;;;;;;;;;;;;;;;;;5008958;28;19991;-44
2022/07/07 11:02:07;;;;;;;;;;;;;;;;;;4994479;28;19920;-46
2022/07/07 11:04:34;;;;;;;;;;;;;;;;;;5004585;28;19920;-47
2022/07/07 11:06:59;;;;;;;;;;;;;;;;;;5007457;28;20034;-47
2022/07/07 11:09:25;;;;;;;;;;;;;;;;;;5016804;28;19920;-47
2022/07/07 11:11:50;;;;;;;;;;;;;;;;;;5021952;22;19933;-47
2022/07/07 11:14:15;;;;;;;;;;;;;;;;;;5028923;28;19931;-47
2022/07/07 11:16:43;;;;;;;;;;;;;;;;;;5027207;28;19920;-45
2022/07/07 11:19:10;;;;;;;;;;;;;;;;;;5034417;28;22984;-47
2022/07/07 11:21:40;;;;;;;;;;;;;;;;;;5020515;28;20002;-48
2022/07/07 11:24:05;;;;;;;;;;;;;;;;;;5030524;28;20087;-48
2022/07/07 11:26:31;;;;;;;;;;;;;;;;;;5054379;28;19920;-45
2022/07/07 11:28:56;;;;;;;;;;;;;;;;;;5061766;28;19922;-48
2022/07/07 11:31:21;;;;;;;;;;;;;;;;;;5052419;28;19929;-47
2022/07/07 11:33:46;;;;;;;;;;;;;;;;;;5041380;28;19927;-47
2022/07/07 11:36:11;;;;;;;;;;;;;;;;;;5038156;28;21904;-46
2022/07/07 11:38:36;;;;;;;;;;;;;;;;;;5041694;28;19920;-46
2022/07/07 11:41:02;;;;;;;;;;;;;;;;;;5055432;28;19908;-47
2022/07/07 11:43:27;;;;;;;;;;;;;;;;;;5049651;28;20686;-45
2022/07/07 11:45:52;;;;;;;;;;;;;;;;;;5065510;28;20008;-47
2022/07/07 11:48:18;;;;;;;;;;;;;;;;;;5042999;28;19949;-46
2022/07/07 11:50:44;;;;;;;;;;;;;;;;;;5044983;28;19993;-47
2022/07/07 11:53:11;;;;;;;;;;;;;;;;;;5023363;28;19968;-45
2022/07/07 11:55:36;;;;;;;;;;;;;;;;;;4991620;28;20106;-44
2022/07/07 11:58:01;;;;;;;;;;;;;;;;;;4957848;28;20455;-45
2022/07/07 12:00:27;;;;;;;;;;;;;;;;;;4962596;28;20561;-44
2022/07/07 12:02:52;;;;;;;;;;;;;;;;;;4990843;28;19964;-47
2022/07/07 12:05:17;;;;;;;;;;;;;;;;;;5034641;28;20152;-48
2022/07/07 12:07:43;;;;;;;;;;;;;;;;;;5054321;28;19948;-46
2022/07/07 12:10:08;;;;;;;;;;;;;;;;;;5061919;28;19919;-46
2022/07/07 12:12:33;;;;;;;;;;;;;;;;;;5082868;28;19921;-44
2022/07/07 12:15:01;;;;;;;;;;;;;;;;;;5073624;28;19970;-47
2022/07/07 12:17:26;;;;;;;;;;;;;;;;;;5073112;28;19916;-48
2022/07/07 12:19:52;;;;;;;;;;;;;;;;;;5079872;28;20045;-47
2022/07/07 12:22:17;;;;;;;;;;;;;;;;;;5093878;28;19948;-47
2022/07/07 12:24:42;;;;;;;;;;;;;;;;;;5070406;28;20027;-47
2022/07/07 12:27:07;;;;;;;;;;;;;;;;;;5071422;28;19912;-46
2022/07/07 12:29:32;;;;;;;;;;;;;;;;;;5071797;28;19927;-45
2022/07/07 12:31:57;;;;;;;;;;;;;;;;;;5070909;28;20282;-45
2022/07/07 12:34:23;;;;;;;;;;;;;;;;;;5076337;28;19922;-47
2022/07/07 12:36:49;;;;;;;;;;;;;;;;;;5079463;28;19920;-46
2022/07/07 12:39:14;;;;;;;;;;;;;;;;;;5080834;28;19979;-44
2022/07/07 12:41:39;;;;;;;;;;;;;;;;;;5080849;28;19988;-46
2022/07/07 12:44:04;;;;;;;;;;;;;;;;;;5077661;28;19919;-47
2022/07/07 12:46:29;;;;;;;;;;;;;;;;;;5067332;28;19927;-44
2022/07/07 12:48:55;;;;;;;;;;;;;;;;;;5074798;28;19930;-47
2022/07/07 12:51:20;;;;;;;;;;;;;;;;;;5074525;28;20676;-45
2022/07/07 12:53:45;;;;;;;;;;;;;;;;;;5082789;28;19920;-47
2022/07/07 12:56:12;;;;;;;;;;;;;;;;;;5084759;28;19976;-46
2022/07/07 12:58:37;;;;;;;;;;;;;;;;;;5078486;28;19920;-44
2022/07/07 13:01:02;;;;;;;;;;;;;;;;;;5083237;28;19924;-44
2022/07/07 13:03:28;;;;;;;;;;;;;;;;;;5083530;28;20339;-43
2022/07/07 13:05:53;;;;;;;;;;;;;;;;;;5075341;28;20294;-46
2022/07/07 13:08:18;;;;;;;;;;;;;;;;;;5084686;28;19920;-44
2022/07/07 13:10:44;;;;;;;;;;;;;;;;;;5083794;28;19916;-45
2022/07/07 13:13:09;;;;;;;;;;;;;;;;;;5085914;28;19923;-46
2022/07/07 13:15:34;;;;;;;;;;;;;;;;;;5083956;28;19965;-45
2022/07/07 13:17:59;;;;;;;;;;;;;;;;;;5089014;28;19935;-43
2022/07/07 13:20:24;;;;;;;;;;;;;;;;;;5076236;28;19963;-44
2022/07/07 13:22:50;;;;;;;;;;;;;;;;;;5089032;28;19915;-46
2022/07/07 13:25:15;;;;;;;;;;;;;;;;;;5081400;28;19980;-46
2022/07/07 13:27:40;;;;;;;;;;;;;;;;;;5084853;28;19993;-44
2022/07/07 13:30:05;;;;;;;;;;;;;;;;;;5084575;28;20007;-47
2022/07/07 13:32:31;;;;;;;;;;;;;;;;;;5086931;28;20367;-45
2022/07/07 13:34:56;;;;;;;;;;;;;;;;;;5091486;28;19912;-44
2022/07/07 13:37:21;;;;;;;;;;;;;;;;;;5095581;28;19991;-45
2022/07/07 13:39:46;;;;;;;;;;;;;;;;;;5090964;28;19967;-46
2022/07/07 13:42:11;;;;;;;;;;;;;;;;;;5082183;28;19915;-44
2022/07/07 13:44:36;;;;;;;;;;;;;;;;;;5086280;28;20590;-46
2022/07/07 13:47:01;;;;;;;;;;;;;;;;;;5087263;28;20401;-44
2022/07/07 13:49:27;;;;;;;;;;;;;;;;;;5084398;28;19912;-44
2022/07/07 13:51:56;;;;;;;;;;;;;;;;;;5085297;28;20290;-46
2022/07/07 13:54:21;;;;;;;;;;;;;;;;;;5093250;28;19926;-44
2022/07/07 13:56:47;;;;;;;;;;;;;;;;;;5084516;28;19983;-49
2022/07/07 13:59:12;;;;;;;;;;;;;;;;;;5086495;28;20297;-44
2022/07/07 14:01:38;;;;;;;;;;;;;;;;;;5090450;28;19998;-46
2022/07/07 14:04:04;;;;;;;;;;;;;;;;;;5092328;28;19913;-45
2022/07/07 14:06:30;;;;;;;;;;;;;;;;;;5096487;28;19912;-45
2022/07/07 14:08:55;;;;;;;;;;;;;;;;;;5090313;28;19912;-46
2022/07/07 14:11:20;;;;;;;;;;;;;;;;;;5091185;28;20070;-44
2022/07/07 14:13:48;;;;;;;;;;;;;;;;;;5089097;28;19912;-45
2022/07/07 14:16:13;;;;;;;;;;;;;;;;;;5095040;28;19912;-45
2022/07/07 14:18:38;;;;;;;;;;;;;;;;;;5094164;28;19927;-44
2022/07/07 14:21:03;;;;;;;;;;;;;;;;;;5090975;28;20279;-45
2022/07/07 14:23:28;;;;;;;;;;;;;;;;;;5084870;28;19920;-44
2022/07/07 14:25:54;;;;;;;;;;;;;;;;;;5087250;28;19917;-46
2022/07/07 14:28:19;;;;;;;;;;;;;;;;;;5088947;28;19920;-45
2022/07/07 14:30:44;;;;;;;;;;;;;;;;;;5093457;28;20042;-45
2022/07/07 14:33:09;;;;;;;;;;;;;;;;;;5098935;28;19919;-46
2022/07/07 14:35:34;;;;;;;;;;;;;;;;;;5091484;28;19912;-45
2022/07/07 14:38:00;;;;;;;;;;;;;;;;;;5089013;28;19913;-45
2022/07/07 14:40:25;;;;;;;;;;;;;;;;;;5084186;28;19913;-47
2022/07/07 14:42:50;;;;;;;;;;;;;;;;;;5090222;28;20022;-44
2022/07/07 14:45:15;;;;;;;;;;;;;;;;;;5083941;28;19916;-45
2022/07/07 14:47:40;;;;;;;;;;;;;;;;;;5093780;28;19935;-45
2022/07/07 14:50:05;;;;;;;;;;;;;;;;;;5093373;28;19987;-44
2022/07/07 14:52:31;;;;;;;;;;;;;;;;;;5093495;28;20061;-45
2022/07/07 14:54:56;;;;;;;;;;;;;;;;;;5089533;28;19924;-44
2022/07/07 14:57:22;;;;;;;;;;;;;;;;;;5090320;28;19919;-45
2022/07/07 14:59:47;;;;;;;;;;;;;;;;;;5088417;28;19917;-45
2022/07/07 15:02:12;;;;;;;;;;;;;;;;;;5092309;28;20008;-44
2022/07/07 15:04:37;;;;;;;;;;;;;;;;;;5092939;28;19921;-43
2022/07/07 15:07:03;;;;;;;;;;;;;;;;;;5090495;28;19912;-44
2022/07/07 15:09:28;;;;;;;;;;;;;;;;;;5098662;28;19912;-44
2022/07/07 15:11:54;;;;;;;;;;;;;;;;;;5082050;28;19935;-43
2022/07/07 15:14:21;;;;;;;;;;;;;;;;;;5080004;28;19920;-45
2022/07/07 15:16:46;;;;;;;;;;;;;;;;;;5093827;28;19942;-43
2022/07/07 15:19:12;;;;;;;;;;;;;;;;;;5086691;28;19991;-44
2022/07/07 15:21:37;;;;;;;;;;;;;;;;;;5089505;28;19966;-43
2022/07/07 15:24:02;;;;;;;;;;;;;;;;;;5091581;28;19912;-43
2022/07/07 15:26:27;;;;;;;;;;;;;;;;;;5088794;28;19912;-44
2022/07/07 15:28:52;;;;;;;;;;;;;;;;;;5090694;28;19913;-44
2022/07/07 15:31:18;;;;;;;;;;;;;;;;;;5084630;28;20353;-45
2022/07/07 15:33:43;;;;;;;;;;;;;;;;;;5081949;28;20359;-46
2022/07/07 15:36:08;;;;;;;;;;;;;;;;;;5088266;28;19913;-46
2022/07/07 15:38:33;;;;;;;;;;;;;;;;;;5092385;28;19920;-43
2022/07/07 15:40:58;;;;;;;;;;;;;;;;;;5082892;28;20363;-44
2022/07/07 15:43:23;;;;;;;;;;;;;;;;;;5082145;28;19913;-43
2022/07/07 15:45:48;;;;;;;;;;;;;;;;;;5095175;28;19916;-45
2022/07/07 15:48:14;;;;;;;;;;;;;;;;;;5091606;28;19912;-46
2022/07/07 15:50:39;;;;;;;;;;;;;;;;;;5096839;28;20001;-46
2022/07/07 15:53:04;;;;;;;;;;;;;;;;;;5091573;28;20394;-45
2022/07/07 15:55:29;;;;;;;;;;;;;;;;;;5098908;28;19913;-44
2022/07/07 15:57:54;;;;;;;;;;;;;;;;;;5100501;28;19956;-44
2022/07/07 16:00:19;;;;;;;;;;;;;;;;;;5097481;28;19943;-40
2022/07/07 16:02:45;;;;;;;;;;;;;;;;;;5094441;28;19912;-42
2022/07/07 16:05:10;;;;;;;;;;;;;;;;;;5090399;28;19923;-41
2022/07/07 16:07:35;;;;;;;;;;;;;;;;;;5076750;28;20394;-41
2022/07/07 16:10:00;;;;;;;;;;;;;;;;;;5088646;28;20305;-41
2022/07/07 16:12:27;;;;;;;;;;;;;;;;;;5089371;28;20421;-42
2022/07/07 16:14:52;;;;;;;;;;;;;;;;;;5095046;28;19934;-41
2022/07/07 16:17:17;;;;;;;;;;;;;;;;;;5095042;28;19912;-41
2022/07/07 16:19:42;;;;;;;;;;;;;;;;;;5095339;28;20378;-41
2022/07/07 16:22:07;;;;;;;;;;;;;;;;;;5090145;28;19948;-41
2022/07/07 16:24:33;;;;;;;;;;;;;;;;;;5075068;28;19931;-41
2022/07/07 16:26:58;;;;;;;;;;;;;;;;;;5074872;28;20011;-41
2022/07/07 16:29:23;;;;;;;;;;;;;;;;;;5074099;28;20006;-41
2022/07/07 16:31:48;;;;;;;;;;;;;;;;;;5074983;28;20397;-40
2022/07/07 16:34:13;;;;;;;;;;;;;;;;;;5075024;28;20275;-43